createdAt,value
2022-09-05T00:01:48.824Z,4.80
2022-09-05T00:04:25.856Z,4.37
2022-09-05T00:07:03.376Z,4.43
2022-09-05T00:09:56.199Z,4.70
2022-09-05T00:12:25.418Z,4.30
2022-09-05T00:15:17.757Z,4.20
2022-09-05T00:19:05.246Z,4.43
2022-09-05T00:24:25.188Z,4.33
2022-09-05T00:24:25.192Z,4.83
2022-09-05T00:27:00.451Z,4.40
2022-09-05T00:31:07.969Z,4.60
2022-09-05T00:32:39.427Z,4.73
2022-09-05T00:35:26.163Z,4.70
2022-09-05T00:37:54.873Z,4.27
2022-09-05T00:40:31.103Z,4.60
2022-09-05T00:43:03.372Z,4.93
2022-09-05T00:45:38.974Z,4.13
2022-09-05T00:48:19.163Z,4.27
2022-09-05T00:51:21.004Z,4.80
2022-09-05T00:54:11.741Z,4.97
2022-09-05T00:57:05.093Z,4.90
2022-09-05T01:00:03.775Z,4.77
2022-09-05T01:02:52.698Z,4.87
2022-09-05T01:05:32.656Z,4.63
2022-09-05T01:08:27.296Z,5.33
2022-09-05T01:11:03.471Z,5.40
2022-09-05T01:13:39.656Z,5.00
2022-09-05T01:16:17.191Z,4.80
2022-09-05T01:19:21.325Z,4.90
2022-09-05T01:22:10.199Z,4.90
2022-09-05T01:24:54.053Z,5.30
2022-09-05T01:29:13.363Z,5.30
2022-09-05T01:30:44.713Z,5.80
2022-09-05T01:33:26.430Z,5.50
2022-09-05T01:36:19.877Z,5.70
2022-09-05T01:40:10.549Z,5.80
2022-09-05T01:41:55.432Z,5.10
2022-09-05T01:44:47.158Z,4.90
2022-09-05T01:47:35.275Z,5.33
2022-09-05T01:50:13.389Z,5.20
2022-09-05T01:53:25.794Z,4.90
2022-09-05T01:56:12.326Z,5.30
2022-09-05T01:58:56.900Z,5.10
2022-09-05T02:01:33.576Z,5.50
2022-09-05T02:04:31.461Z,5.37
2022-09-05T02:07:30.237Z,5.50
2022-09-05T02:10:21.280Z,5.00
2022-09-05T02:13:02.934Z,4.80
2022-09-05T02:15:43.037Z,4.83
2022-09-05T02:18:39.084Z,5.50
2022-09-05T02:21:15.994Z,5.07
2022-09-05T02:23:49.057Z,5.10
2022-09-05T02:26:23.593Z,5.33
2022-09-05T02:28:57.024Z,5.13
2022-09-05T02:31:30.989Z,5.30
2022-09-05T02:34:08.997Z,5.43
2022-09-05T02:36:44.358Z,5.73
2022-09-05T02:45:04.215Z,5.30
2022-09-05T02:45:17.493Z,5.07
2022-09-05T02:45:26.769Z,5.07
2022-09-05T02:48:15.152Z,5.27
2022-09-05T02:54:24.087Z,5.33
2022-09-05T02:57:40.446Z,5.47
2022-09-05T02:58:05.846Z,5.77
2022-09-05T03:00:04.072Z,5.27
2022-09-05T03:02:41.686Z,5.67
2022-09-05T03:05:19.214Z,6.00
2022-09-05T03:08:16.749Z,5.80
2022-09-05T03:11:12.063Z,5.50
2022-09-05T03:14:22.578Z,5.40
2022-09-05T03:17:44.807Z,5.80
2022-09-05T03:20:38.533Z,5.37
2022-09-05T03:23:49.453Z,5.87
2022-09-05T03:26:43.398Z,5.83
2022-09-05T03:29:48.468Z,6.33
2022-09-05T03:32:57.185Z,5.30
2022-09-05T03:36:11.061Z,5.80
2022-09-05T03:39:13.145Z,6.00
2022-09-05T03:42:14.626Z,5.53
2022-09-05T03:44:58.165Z,5.63
2022-09-05T03:47:49.299Z,5.57
2022-09-05T03:57:04.329Z,6.17
2022-09-05T03:57:11.962Z,5.63
2022-09-05T03:57:27.198Z,6.23
2022-09-05T04:00:07.450Z,5.93
2022-09-05T04:08:09.353Z,6.40
2022-09-05T04:08:23.961Z,6.10
2022-09-05T04:08:41.759Z,6.30
2022-09-05T04:11:16.356Z,6.27
2022-09-05T04:13:50.557Z,5.80
2022-09-05T04:16:25.760Z,6.03
2022-09-05T04:18:57.470Z,5.83
2022-09-05T04:21:29.075Z,6.73
2022-09-05T04:24:09.143Z,6.17
2022-09-05T04:27:06.288Z,6.03
2022-09-05T04:29:45.800Z,5.73
2022-09-05T04:32:24.282Z,6.30
2022-09-05T04:35:08.244Z,6.23
2022-09-05T04:37:48.682Z,6.07
2022-09-05T04:40:40.668Z,6.20
2022-09-05T04:43:13.480Z,6.50
2022-09-05T04:45:45.186Z,6.30
2022-09-05T04:48:20.149Z,6.07
2022-09-05T04:51:06.983Z,6.07
2022-09-05T04:54:13.418Z,6.10
2022-09-05T04:56:45.678Z,6.03
2022-09-05T05:03:05.619Z,6.10
2022-09-05T05:06:05.906Z,5.33
2022-09-05T05:06:18.514Z,5.33
2022-09-05T05:08:04.738Z,5.30
2022-09-05T05:16:14.906Z,5.13
2022-09-05T05:17:59.918Z,5.60
2022-09-05T05:18:16.389Z,5.80
2022-09-05T05:19:21.692Z,5.30
2022-09-05T05:21:55.204Z,5.63
2022-09-05T05:24:27.720Z,5.73
2022-09-05T05:27:05.070Z,5.70
2022-09-05T05:29:43.239Z,5.80
2022-09-05T05:32:44.746Z,5.27
2022-09-05T05:35:11.258Z,5.60
2022-09-05T05:37:45.112Z,5.77
2022-09-05T05:40:25.492Z,5.60
2022-09-05T05:42:54.729Z,5.40
2022-09-05T05:45:34.699Z,5.13
2022-09-05T05:48:06.552Z,5.27
2022-09-05T05:50:41.703Z,5.27
2022-09-05T05:53:42.851Z,5.33
2022-09-05T05:56:51.892Z,5.03
2022-09-05T05:59:41.569Z,5.17
2022-09-05T06:03:24.771Z,4.90
2022-09-05T06:06:09.181Z,4.90
2022-09-05T06:14:51.679Z,5.40
2022-09-05T06:15:06.475Z,4.67
2022-09-05T06:15:31.299Z,4.67
2022-09-05T06:18:28.550Z,5.13
2022-09-05T06:22:06.098Z,5.07
2022-09-05T06:25:17.025Z,4.50
2022-09-05T06:28:19.157Z,4.43
2022-09-05T06:31:29.369Z,4.70
2022-09-05T06:33:59.288Z,4.77
2022-09-05T06:36:43.869Z,4.77
2022-09-05T06:39:18.401Z,3.93
2022-09-05T06:42:30.643Z,3.93
2022-09-05T06:45:27.785Z,4.07
2022-09-05T06:48:04.114Z,3.90
2022-09-05T06:51:08.492Z,3.80
2022-09-05T06:54:01.846Z,3.90
2022-09-05T06:56:41.068Z,4.17
2022-09-05T07:00:00.840Z,3.93
2022-09-05T07:02:59.156Z,3.60
2022-09-05T07:05:42.766Z,3.90
2022-09-05T07:08:34.848Z,4.50
2022-09-05T07:11:16.322Z,4.80
2022-09-05T07:13:59.285Z,4.57
2022-09-05T07:16:41.685Z,3.97
2022-09-05T07:19:29.899Z,3.60
2022-09-05T07:22:46.134Z,4.18
2022-09-05T07:25:18.361Z,3.22
2022-09-05T07:28:20.968Z,3.75
2022-09-05T07:30:47.741Z,3.35
2022-09-05T07:33:21.654Z,3.97
2022-09-05T07:35:52.378Z,3.60
2022-09-05T07:38:26.721Z,3.50
2022-09-05T07:41:23.214Z,3.65
2022-09-05T07:43:56.149Z,3.42
2022-09-05T07:46:27.463Z,3.20
2022-09-05T07:49:02.748Z,3.30
2022-09-05T07:56:47.724Z,3.33
2022-09-05T07:56:50.902Z,3.72
2022-09-05T07:57:30.097Z,2.97
2022-09-05T08:00:04.808Z,3.40
2022-09-05T08:02:33.449Z,3.42
2022-09-05T08:05:06.195Z,3.42
2022-09-05T08:07:46.594Z,3.05
2022-09-05T08:10:20.759Z,3.63
2022-09-05T08:13:34.079Z,3.47
2022-09-05T08:16:10.495Z,3.10
2022-09-05T08:18:46.053Z,3.50
2022-09-05T08:21:27.074Z,3.20
2022-09-05T08:24:05.571Z,3.33
2022-09-05T08:26:47.268Z,3.22
2022-09-05T08:29:27.150Z,3.13
2022-09-05T08:32:01.337Z,2.70
2022-09-05T08:34:45.292Z,2.92
2022-09-05T08:37:21.600Z,2.97
2022-09-05T08:40:10.060Z,3.55
2022-09-05T08:43:36.626Z,3.25
2022-09-05T08:46:42.370Z,3.35
2022-09-05T08:48:55.956Z,2.92
2022-09-05T08:51:43.177Z,2.83
2022-09-05T08:54:26.896Z,2.97
2022-09-05T08:57:01.711Z,2.83
2022-09-05T08:59:59.259Z,3.38
2022-09-05T09:03:04.367Z,2.90
2022-09-05T09:06:13.415Z,3.00
2022-09-05T09:08:55.635Z,3.30
2022-09-05T09:11:31.808Z,3.45
2022-09-05T09:14:30.562Z,2.80
2022-09-05T09:17:06.773Z,2.95
2022-09-05T09:19:49.084Z,2.95
2022-09-05T09:22:27.967Z,2.92
2022-09-05T09:25:15.706Z,3.17
2022-09-05T09:28:47.636Z,3.17
2022-09-05T09:31:18.518Z,2.90
2022-09-05T09:33:53.981Z,2.95
2022-09-05T09:36:55.995Z,2.83
2022-09-05T09:39:39.194Z,3.05
2022-09-05T09:42:33.566Z,3.05
2022-09-05T09:45:28.015Z,2.97
2022-09-05T09:48:21.189Z,2.80
2022-09-05T09:51:06.692Z,3.08
2022-09-05T09:53:50.899Z,2.45
2022-09-05T09:56:40.213Z,2.95
2022-09-05T09:59:24.233Z,2.40
2022-09-05T10:04:30.917Z,2.38
2022-09-05T10:10:50.597Z,2.25
2022-09-05T10:11:18.870Z,2.40
2022-09-05T10:11:54.224Z,2.45
2022-09-05T10:14:50.661Z,2.50
2022-09-05T10:17:48.348Z,2.28
2022-09-05T10:20:29.410Z,2.35
2022-09-05T10:23:33.600Z,2.50
2022-09-05T10:26:39.346Z,2.65
2022-09-05T10:29:34.756Z,2.45
2022-09-05T10:34:59.393Z,2.30
2022-09-05T10:35:16.836Z,2.50
2022-09-05T10:37:54.180Z,2.55
2022-09-05T10:40:25.467Z,2.50
2022-09-05T10:43:00.111Z,2.45
2022-09-05T10:45:45.923Z,2.55
2022-09-05T10:48:22.292Z,2.50
2022-09-05T10:51:00.826Z,2.95
2022-09-05T10:53:39.633Z,2.28
2022-09-05T10:56:14.211Z,2.35
2022-09-05T11:01:19.395Z,2.50
2022-09-05T11:02:25.980Z,2.60
2022-09-05T11:04:59.995Z,2.33
2022-09-05T11:07:39.489Z,2.42
2022-09-05T11:10:14.689Z,2.08
2022-09-05T11:13:01.890Z,2.28
2022-09-05T11:15:45.818Z,2.13
2022-09-05T11:18:56.264Z,2.50
2022-09-05T11:21:32.302Z,2.47
2022-09-05T11:24:14.360Z,2.35
2022-09-05T11:26:46.766Z,2.05
2022-09-05T11:29:26.789Z,2.22
2022-09-05T11:35:58.099Z,2.00
2022-09-05T11:39:47.800Z,1.95
2022-09-05T11:40:09.797Z,1.75
2022-09-05T11:41:59.387Z,1.80
2022-09-05T11:44:36.380Z,1.77
2022-09-05T11:47:45.984Z,1.98
2022-09-05T11:50:41.505Z,2.00
2022-09-05T11:53:39.814Z,2.08
2022-09-05T11:56:28.809Z,2.08
2022-09-05T11:59:19.766Z,1.70
2022-09-05T12:02:24.424Z,1.88
2022-09-05T12:05:49.385Z,2.45
2022-09-05T12:08:05.556Z,2.20
2022-09-05T12:10:48.305Z,2.00
2022-09-05T12:13:47.058Z,2.00
2022-09-05T12:16:51.003Z,1.88
2022-09-05T12:19:34.590Z,1.98
2022-09-05T12:22:30.465Z,2.17
2022-09-05T12:25:25.881Z,2.17
2022-09-05T12:29:25.996Z,1.93
2022-09-05T12:32:31.158Z,2.30
2022-09-05T12:36:05.683Z,2.28
2022-09-05T12:40:30.215Z,2.03
2022-09-05T12:41:37.998Z,2.10
2022-09-05T12:44:34.864Z,2.10
2022-09-05T12:45:56.536Z,2.40
2022-09-05T12:48:39.200Z,2.05
2022-09-05T12:51:45.073Z,2.70
2022-09-05T12:54:24.407Z,2.40
2022-09-05T12:59:43.404Z,2.20
2022-09-05T13:02:56.003Z,1.80
2022-09-05T13:03:04.852Z,2.20
2022-09-05T13:05:46.212Z,2.30
2022-09-05T13:08:21.062Z,2.53
2022-09-05T13:14:48.430Z,1.98
2022-09-05T13:14:54.036Z,2.67
2022-09-05T13:16:41.313Z,2.30
2022-09-05T13:19:19.976Z,5.03
2022-09-05T13:21:50.325Z,2.17
2022-09-05T13:24:30.619Z,2.50
2022-09-05T13:27:07.690Z,2.08
2022-09-05T13:33:24.013Z,2.20
2022-09-05T13:37:55.275Z,2.15
2022-09-05T13:38:16.290Z,1.90
2022-09-05T13:38:49.327Z,2.08
2022-09-05T13:41:28.323Z,2.10
2022-09-05T13:44:00.347Z,2.10
2022-09-05T13:46:58.191Z,2.10
2022-09-05T13:49:32.394Z,2.05
2022-09-05T13:52:16.333Z,2.20
2022-09-05T13:54:51.081Z,2.00
2022-09-05T13:57:31.645Z,2.13
2022-09-05T14:00:51.762Z,2.40
2022-09-05T14:03:55.653Z,1.98
2022-09-05T14:07:43.465Z,2.15
2022-09-05T14:10:15.574Z,2.13
2022-09-05T14:12:49.361Z,2.08
2022-09-05T14:15:27.112Z,2.40
2022-09-05T14:18:12.796Z,2.25
2022-09-05T14:21:10.882Z,2.00
2022-09-05T14:23:44.903Z,1.98
2022-09-05T14:26:21.046Z,1.80
2022-09-05T14:29:14.018Z,1.80
2022-09-05T14:37:39.368Z,1.85
2022-09-05T14:37:46.430Z,1.83
2022-09-05T14:38:09.444Z,2.00
2022-09-05T14:41:31.285Z,2.13
2022-09-05T14:44:42.389Z,2.65
2022-09-05T14:47:47.406Z,2.25
2022-09-05T14:50:35.072Z,2.15
2022-09-05T14:56:36.723Z,1.90
2022-09-05T15:02:52.812Z,2.05
2022-09-05T15:02:53.849Z,2.30
2022-09-05T15:04:44.557Z,2.05
2022-09-05T15:07:19.555Z,2.27
2022-09-05T15:12:16.711Z,1.90
2022-09-05T15:12:50.321Z,1.92
2022-09-05T15:15:25.710Z,2.10
2022-09-05T15:17:58.607Z,2.40
2022-09-05T15:20:37.064Z,2.42
2022-09-05T15:23:16.041Z,2.25
2022-09-05T15:25:47.385Z,2.00
2022-09-05T15:28:31.113Z,2.13
2022-09-05T15:31:05.058Z,2.10
2022-09-05T15:33:35.897Z,2.10
2022-09-05T15:36:05.816Z,1.97
2022-09-05T15:38:55.455Z,2.23
2022-09-05T15:41:26.084Z,2.25
2022-09-05T15:44:03.854Z,2.20
2022-09-05T15:46:51.400Z,1.93
2022-09-05T15:49:32.217Z,2.10
2022-09-05T15:52:03.632Z,2.17
2022-09-05T15:54:38.085Z,1.90
2022-09-05T15:57:17.827Z,1.80
2022-09-05T15:59:49.654Z,2.00
2022-09-05T16:02:21.785Z,2.10
2022-09-05T16:10:29.712Z,2.40
2022-09-05T16:10:38.257Z,2.07
2022-09-05T16:11:20.308Z,2.10
2022-09-05T16:13:52.636Z,2.20
2022-09-05T16:21:15.689Z,1.77
2022-09-05T16:23:30.458Z,2.40
2022-09-05T16:23:32.258Z,2.50
2022-09-05T16:25:02.551Z,2.23
2022-09-05T16:27:45.457Z,2.40
2022-09-05T16:30:20.781Z,2.57
2022-09-05T16:32:51.913Z,2.43
2022-09-05T16:35:26.286Z,2.70
2022-09-05T16:38:02.220Z,2.47
2022-09-05T16:40:33.831Z,2.43
2022-09-05T16:43:08.057Z,2.60
2022-09-05T16:45:45.753Z,2.90
2022-09-05T16:48:36.406Z,2.97
2022-09-05T16:51:15.795Z,2.47
2022-09-05T16:53:58.828Z,2.60
2022-09-05T16:56:31.661Z,2.57
2022-09-05T16:59:02.664Z,2.90
2022-09-05T17:01:47.117Z,2.90
2022-09-05T17:04:23.374Z,3.60
2022-09-05T17:06:58.707Z,3.57
2022-09-05T17:09:29.756Z,3.37
2022-09-05T17:12:02.052Z,3.53
2022-09-05T17:14:38.740Z,3.33
2022-09-05T17:18:20.825Z,3.07
2022-09-05T17:20:14.396Z,3.10
2022-09-05T17:27:46.897Z,3.43
2022-09-05T17:29:23.805Z,3.63
2022-09-05T17:29:27.753Z,3.80
2022-09-05T17:31:58.406Z,3.53
2022-09-05T17:34:58.677Z,3.83
2022-09-05T17:38:13.548Z,4.33
2022-09-05T17:41:20.650Z,5.73
2022-09-05T17:43:53.164Z,5.53
2022-09-05T17:46:25.032Z,6.10
2022-09-05T17:49:18.328Z,5.23
2022-09-05T17:52:21.996Z,5.30
2022-09-05T17:54:52.859Z,5.07
2022-09-05T17:57:42.570Z,5.40
2022-09-05T18:00:59.076Z,5.10
2022-09-05T18:04:16.533Z,4.53
2022-09-05T18:13:14.144Z,5.20
2022-09-05T18:16:11.944Z,5.00
2022-09-05T18:19:33.396Z,5.90
2022-09-05T18:21:48.108Z,6.30
2022-09-05T18:24:24.484Z,5.47
2022-09-05T18:27:28.112Z,5.67
2022-09-05T18:30:05.994Z,5.53
2022-09-05T18:32:45.496Z,5.17
2022-09-05T18:35:37.579Z,5.30
2022-09-05T18:38:51.288Z,5.77
2022-09-05T18:41:22.856Z,5.20
2022-09-05T18:44:12.205Z,5.03
2022-09-05T18:46:47.330Z,4.97
2022-09-05T18:50:22.429Z,5.00
2022-09-05T18:52:16.223Z,5.43
2022-09-05T18:55:31.640Z,5.10
2022-09-05T18:57:39.490Z,5.10
2022-09-05T19:00:13.750Z,4.77
2022-09-05T19:02:51.541Z,4.80
2022-09-05T19:05:43.378Z,4.70
2022-09-05T19:08:28.727Z,4.43
2022-09-05T19:11:00.129Z,4.33
2022-09-05T19:13:32.390Z,4.27
2022-09-05T19:16:21.118Z,4.53
2022-09-05T19:19:24.916Z,4.87
2022-09-05T19:22:33.880Z,4.53
2022-09-05T19:24:46.537Z,4.50
2022-09-05T19:28:17.300Z,4.30
2022-09-05T19:36:45.721Z,4.30
2022-09-05T19:36:55.340Z,4.30
2022-09-05T19:37:24.391Z,4.50
2022-09-05T19:40:20.459Z,4.43
2022-09-05T19:47:46.865Z,4.40
2022-09-05T19:47:47.689Z,4.33
2022-09-05T19:47:51.343Z,4.30
2022-09-05T19:50:11.395Z,4.80
2022-09-05T19:55:28.122Z,4.90
2022-09-05T19:58:18.627Z,4.90
2022-09-05T20:01:02.733Z,4.30
2022-09-05T20:03:38.168Z,4.50
2022-09-05T20:06:29.042Z,4.63
2022-09-05T20:09:09.757Z,4.50
2022-09-05T20:11:45.727Z,4.80
2022-09-05T20:14:20.913Z,4.67
2022-09-05T20:16:50.500Z,3.97
2022-09-05T20:19:29.219Z,4.40
2022-09-05T20:22:05.523Z,3.93
2022-09-05T20:24:53.818Z,3.57
2022-09-05T20:27:27.463Z,3.97
2022-09-05T20:29:58.530Z,3.83
2022-09-05T20:32:38.950Z,4.00
2022-09-05T20:38:57.042Z,3.73
2022-09-05T20:43:15.475Z,4.20
2022-09-05T20:43:23.805Z,4.60
2022-09-05T20:43:58.441Z,3.97
2022-09-05T20:51:03.958Z,3.80
2022-09-05T20:54:10.148Z,3.80
2022-09-05T20:54:21.957Z,3.33
2022-09-05T20:55:38.651Z,3.57
2022-09-05T20:58:11.618Z,3.50
2022-09-05T21:01:21.632Z,2.83
2022-09-05T21:03:45.511Z,3.30
2022-09-05T21:06:22.819Z,3.63
2022-09-05T21:08:53.521Z,3.50
2022-09-05T21:11:31.671Z,3.00
2022-09-05T21:14:03.613Z,3.00
2022-09-05T21:16:41.203Z,3.43
2022-09-05T21:19:25.315Z,3.23
2022-09-05T21:22:11.318Z,2.80
2022-09-05T21:24:42.531Z,2.53
2022-09-05T21:27:26.006Z,2.60
2022-09-05T21:29:59.029Z,2.43
2022-09-05T21:32:38.179Z,2.40
2022-09-05T21:35:34.499Z,2.47
2022-09-05T21:38:02.899Z,2.63
2022-09-05T21:40:31.139Z,2.10
2022-09-05T21:47:33.118Z,2.30
2022-09-05T21:47:38.479Z,2.40
2022-09-05T21:48:41.410Z,2.40
2022-09-05T21:51:14.199Z,2.17
2022-09-05T21:57:58.721Z,2.57
2022-09-05T21:59:30.625Z,2.27
2022-09-05T21:59:46.515Z,2.30
2022-09-05T22:02:17.203Z,2.00
2022-09-05T22:04:47.073Z,2.27
2022-09-05T22:07:19.589Z,2.20
2022-09-05T22:10:00.754Z,2.40
2022-09-05T22:12:38.300Z,2.17
2022-09-05T22:15:26.819Z,2.17
2022-09-05T22:18:17.644Z,2.20
2022-09-05T22:21:02.929Z,2.20
2022-09-05T22:23:44.235Z,2.20
2022-09-05T22:26:13.286Z,2.17
2022-09-05T22:28:48.716Z,2.60
2022-09-05T22:31:17.286Z,1.87
2022-09-05T22:33:45.769Z,1.70
2022-09-05T22:36:20.650Z,2.10
2022-09-05T22:38:48.738Z,1.63
2022-09-05T22:41:17.172Z,2.13
2022-09-05T22:43:46.330Z,1.70
2022-09-05T22:46:14.862Z,2.10
2022-09-05T22:48:42.907Z,1.97
2022-09-05T22:51:10.942Z,2.03
2022-09-05T22:59:19.649Z,2.50
2022-09-05T23:01:50.108Z,1.73
2022-09-05T23:04:18.562Z,2.23
2022-09-05T23:06:46.645Z,1.67
2022-09-05T23:09:16.021Z,1.90
2022-09-05T23:11:44.082Z,1.90
2022-09-05T23:14:12.112Z,1.83
2022-09-05T23:16:40.156Z,1.80
2022-09-05T23:19:08.199Z,1.60
2022-09-05T23:21:36.222Z,1.80
2022-09-05T23:24:04.470Z,1.83
2022-09-05T23:26:33.913Z,2.10
2022-09-05T23:29:01.927Z,1.80
2022-09-05T23:31:30.014Z,1.67
2022-09-05T23:33:58.211Z,1.67
2022-09-05T23:36:26.239Z,1.60
2022-09-05T23:38:54.389Z,1.70
2022-09-05T23:41:22.397Z,1.87
2022-09-05T23:43:51.809Z,2.20
2022-09-05T23:46:19.897Z,1.83
2022-09-05T23:48:47.935Z,1.60
2022-09-05T23:51:15.985Z,1.87
2022-09-05T23:53:45.114Z,2.10
2022-09-05T23:56:13.302Z,1.90
2022-09-05T23:58:41.401Z,2.20
